Vivien A — TCYC4 — position and weather

sailwx.info

Track history (hours):
 
Tides and Currents Weather Stations Pressure Air Temp Water Temp Dewpoint Dewpoint Depression Visibility Wind Speed Wind Dir Waves Ship Positions

Vivien A

Last reported at 2017-Jul-29 02:03 UTC. Time now 2017-Jul-29 11:55 UTC.
Position N 22°06' W 017°52'.

Length 210 m; draft 11.3 m.

Type: Ship (hazmat cat B). MMSI: 271040635.

Date/timePositionNaut miles runAvg speedWind from/ knotsBaromVisibWave heightAir tempDewpointWater temp
2017-Jul-29 02:03N 22°06' W 017°52'114.3
2017-Jul-29 02:00N 22°06' W 017°52'3914.0
2017-Jul-28 23:15N 22°44' W 017°45'21513.8
2017-Jul-28 07:39N 25°57' W 016°00'214.3
2017-Jul-28 07:29N 25°59' W 015°58'914.3
2017-Jul-28 06:52N 26°05' W 015°51'614.1
2017-Jul-28 06:25N 26°09' W 015°46'613.9
2017-Jul-28 05:58N 26°13' W 015°41'4413.9
2017-Jul-28 02:47N 26°43' W 015°04'513.9
2017-Jul-28 02:27N 26°46' W 014°60'713.9
2017-Jul-28 01:59N 26°50' W 014°54'713.8
2017-Jul-28 01:28N 26°55' W 014°48'713.8
2017-Jul-28 00:58N 26°60' W 014°43'613.6
2017-Jul-28 00:30N 27°04' W 014°38'713.7
2017-Jul-28 00:01N 27°09' W 014°32'713.6
2017-Jul-27 23:30N 27°13' W 014°26'713.7
2017-Jul-27 23:00N 27°17' W 014°20'714.0
2017-Jul-27 22:30N 27°22' W 014°14'714.5
2017-Jul-27 22:00N 27°27' W 014°08'714.9
2017-Jul-27 21:31N 27°32' W 014°02'715.0
2017-Jul-27 21:01N 27°37' W 013°56'714.7
2017-Jul-27 20:31N 27°42' W 013°50'714.4
2017-Jul-27 20:00N 27°47' W 013°44'714.1
2017-Jul-27 19:30N 27°52' W 013°38'714.1
2017-Jul-27 19:00N 27°57' W 013°33'714.2
2017-Jul-27 18:30N 28°03' W 013°28'714.4
2017-Jul-27 18:00N 28°09' W 013°24'714.2
2017-Jul-27 17:30N 28°15' W 013°19'714.2
2017-Jul-27 17:00N 28°21' W 013°15'714.1
2017-Jul-27 16:30N 28°27' W 013°11'713.9
2017-Jul-27 16:00N 28°33' W 013°06'714.1
2017-Jul-27 15:30N 28°39' W 013°02'814.2
2017-Jul-27 14:57N 28°46' W 012°58'1314.1
2017-Jul-27 14:00N 28°57' W 012°50'714.0
2017-Jul-27 13:30N 29°03' W 012°46'713.9
2017-Jul-27 13:00N 29°09' W 012°42'713.9
2017-Jul-27 12:30N 29°15' W 012°38'714.1
2017-Jul-27 12:01N 29°21' W 012°34'714.2
2017-Jul-27 11:30N 29°27' W 012°30'713.8
2017-Jul-27 11:01N 29°33' W 012°26'713.9
2017-Jul-27 10:30N 29°39' W 012°21'1114.0
2017-Jul-27 09:44N 29°48' W 012°14'313.9
2017-Jul-27 09:30N 29°51' W 012°12'713.8
2017-Jul-27 09:00N 29°57' W 012°08'713.9
2017-Jul-27 08:30N 30°03' W 012°04'714.0
2017-Jul-27 08:00N 30°08' W 011°60'713.9
2017-Jul-27 07:30N 30°15' W 011°56'714.0
2017-Jul-27 07:00N 30°21' W 011°51'714.1
2017-Jul-27 06:30N 30°26' W 011°47'714.0
2017-Jul-27 06:01N 30°32' W 011°43'714.0
2017-Jul-27 05:30N 30°38' W 011°39'714.3
2017-Jul-27 05:00N 30°44' W 011°34'714.4
2017-Jul-27 04:30N 30°51' W 011°30'714.6
2017-Jul-27 04:00N 30°57' W 011°25'714.6
2017-Jul-27 03:30N 31°03' W 011°21'814.5
2017-Jul-27 02:57N 31°10' W 011°16'714.2
2017-Jul-27 02:27N 31°16' W 011°12'614.2
2017-Jul-27 02:00N 31°21' W 011°08'714.8
2017-Jul-27 01:30N 31°28' W 011°04'815.2
2017-Jul-27 01:00N 31°34' W 010°59'815.1
2017-Jul-27 00:30N 31°40' W 010°54'714.8
2017-Jul-27 00:00N 31°47' W 010°50'714.6
2017-Jul-26 23:30N 31°53' W 010°45'1114.5
2017-Jul-26 22:45N 32°02' W 010°37'414.4
2017-Jul-26 22:30N 32°04' W 010°35'714.1
2017-Jul-26 22:01N 32°10' W 010°30'714.7
2017-Jul-26 21:30N 32°15' W 010°24'815.1
2017-Jul-26 20:58N 32°21' W 010°17'714.9
2017-Jul-26 20:31N 32°26' W 010°11'914.8
2017-Jul-26 19:55N 32°32' W 010°04'814.6
2017-Jul-26 19:22N 32°38' W 009°58'514.2
2017-Jul-26 19:00N 32°42' W 009°54'714.4
2017-Jul-26 18:30N 32°48' W 009°48'1014.5
2017-Jul-26 17:51N 32°55' W 009°41'514.8
2017-Jul-26 17:30N 32°59' W 009°36'714.7
2017-Jul-26 17:00N 33°04' W 009°30'1315.0
2017-Jul-26 16:10N 33°12' W 009°20'215.1
2017-Jul-26 16:00N 33°14' W 009°18'815.1
2017-Jul-26 15:30N 33°20' W 009°11'2814.7
2017-Jul-26 13:38N 33°40' W 008°49'214.6
2017-Jul-26 13:28N 33°42' W 008°47'1714.4
2017-Jul-26 12:15N 33°54' W 008°33'414.4
2017-Jul-26 12:00N 33°57' W 008°30'16514.2
2017-Jul-26 00:20N 35°58' W 006°12'914.5
2017-Jul-25 23:44N 35°58' W 006°01'414.6
2017-Jul-25 23:27N 35°58' W 005°56'1813.8
2017-Jul-25 22:09N 35°57' W 005°34'  
2017-Jul-19 18:08N 36°27' W 002°11'1 9.4
2017-Jul-19 18:00N 36°27' W 002°09'7910.6
2017-Jul-19 10:30N 37°19' W 000°54'612.7
2017-Jul-19 10:00N 37°23' W 000°49'612.7
2017-Jul-19 09:30N 37°28' W 000°43'612.7
2017-Jul-19 09:00N 37°32' W 000°37'612.8
2017-Jul-19 08:30N 37°36' W 000°31'612.9
2017-Jul-19 08:00N 37°42' W 000°26'612.8
2017-Jul-19 07:30N 37°47' W 000°22'712.8
2017-Jul-19 07:00N 37°53' W 000°18'712.9
2017-Jul-19 06:29N 37°58' W 000°13'613.0
2017-Jul-19 06:00N 38°04' W 000°09'713.0
2017-Jul-19 05:30N 38°09' W 000°06'612.9
2017-Jul-19 05:00N 38°15' W 000°01'713.0
2017-Jul-19 04:30N 38°20' E 000°04'  
Track history (hours):
 
Tides and Currents Weather Stations Pressure Air Temp Water Temp Dewpoint Dewpoint Depression Visibility Wind Speed Wind Dir Waves Ship Positions

Vivien A

Last reported at 2017-Jul-29 02:03 UTC. Time now 2017-Jul-29 11:55 UTC.
Position N 22°06' W 017°52'.

Length 210 m; draft 11.3 m.

Type: Ship (hazmat cat B). MMSI: 271040635.

Date/timePositionNaut miles runAvg speedWind from/ knotsBaromVisibWave heightAir tempDewpointWater temp
2017-Jul-29 02:03N 22°06' W 017°52'114.3
2017-Jul-29 02:00N 22°06' W 017°52'3914.0
2017-Jul-28 23:15N 22°44' W 017°45'21513.8
2017-Jul-28 07:39N 25°57' W 016°00'214.3
2017-Jul-28 07:29N 25°59' W 015°58'914.3
2017-Jul-28 06:52N 26°05' W 015°51'614.1
2017-Jul-28 06:25N 26°09' W 015°46'613.9
2017-Jul-28 05:58N 26°13' W 015°41'4413.9
2017-Jul-28 02:47N 26°43' W 015°04'513.9
2017-Jul-28 02:27N 26°46' W 014°60'713.9
2017-Jul-28 01:59N 26°50' W 014°54'713.8
2017-Jul-28 01:28N 26°55' W 014°48'713.8
2017-Jul-28 00:58N 26°60' W 014°43'613.6
2017-Jul-28 00:30N 27°04' W 014°38'713.7
2017-Jul-28 00:01N 27°09' W 014°32'713.6
2017-Jul-27 23:30N 27°13' W 014°26'713.7
2017-Jul-27 23:00N 27°17' W 014°20'714.0
2017-Jul-27 22:30N 27°22' W 014°14'714.5
2017-Jul-27 22:00N 27°27' W 014°08'714.9
2017-Jul-27 21:31N 27°32' W 014°02'715.0
2017-Jul-27 21:01N 27°37' W 013°56'714.7
2017-Jul-27 20:31N 27°42' W 013°50'714.4
2017-Jul-27 20:00N 27°47' W 013°44'714.1
2017-Jul-27 19:30N 27°52' W 013°38'714.1
2017-Jul-27 19:00N 27°57' W 013°33'714.2
2017-Jul-27 18:30N 28°03' W 013°28'714.4
2017-Jul-27 18:00N 28°09' W 013°24'714.2
2017-Jul-27 17:30N 28°15' W 013°19'714.2
2017-Jul-27 17:00N 28°21' W 013°15'714.1
2017-Jul-27 16:30N 28°27' W 013°11'713.9
2017-Jul-27 16:00N 28°33' W 013°06'714.1
2017-Jul-27 15:30N 28°39' W 013°02'814.2
2017-Jul-27 14:57N 28°46' W 012°58'1314.1
2017-Jul-27 14:00N 28°57' W 012°50'714.0
2017-Jul-27 13:30N 29°03' W 012°46'713.9
2017-Jul-27 13:00N 29°09' W 012°42'713.9
2017-Jul-27 12:30N 29°15' W 012°38'714.1
2017-Jul-27 12:01N 29°21' W 012°34'714.2
2017-Jul-27 11:30N 29°27' W 012°30'713.8
2017-Jul-27 11:01N 29°33' W 012°26'713.9
2017-Jul-27 10:30N 29°39' W 012°21'1114.0
2017-Jul-27 09:44N 29°48' W 012°14'313.9
2017-Jul-27 09:30N 29°51' W 012°12'713.8
2017-Jul-27 09:00N 29°57' W 012°08'713.9
2017-Jul-27 08:30N 30°03' W 012°04'714.0
2017-Jul-27 08:00N 30°08' W 011°60'713.9
2017-Jul-27 07:30N 30°15' W 011°56'714.0
2017-Jul-27 07:00N 30°21' W 011°51'714.1
2017-Jul-27 06:30N 30°26' W 011°47'714.0
2017-Jul-27 06:01N 30°32' W 011°43'714.0
2017-Jul-27 05:30N 30°38' W 011°39'714.3
2017-Jul-27 05:00N 30°44' W 011°34'714.4
2017-Jul-27 04:30N 30°51' W 011°30'714.6
2017-Jul-27 04:00N 30°57' W 011°25'714.6
2017-Jul-27 03:30N 31°03' W 011°21'814.5
2017-Jul-27 02:57N 31°10' W 011°16'714.2
2017-Jul-27 02:27N 31°16' W 011°12'614.2
2017-Jul-27 02:00N 31°21' W 011°08'714.8
2017-Jul-27 01:30N 31°28' W 011°04'815.2
2017-Jul-27 01:00N 31°34' W 010°59'815.1
2017-Jul-27 00:30N 31°40' W 010°54'714.8
2017-Jul-27 00:00N 31°47' W 010°50'714.6
2017-Jul-26 23:30N 31°53' W 010°45'1114.5
2017-Jul-26 22:45N 32°02' W 010°37'414.4
2017-Jul-26 22:30N 32°04' W 010°35'714.1
2017-Jul-26 22:01N 32°10' W 010°30'714.7
2017-Jul-26 21:30N 32°15' W 010°24'815.1
2017-Jul-26 20:58N 32°21' W 010°17'714.9
2017-Jul-26 20:31N 32°26' W 010°11'914.8
2017-Jul-26 19:55N 32°32' W 010°04'814.6
2017-Jul-26 19:22N 32°38' W 009°58'514.2
2017-Jul-26 19:00N 32°42' W 009°54'714.4
2017-Jul-26 18:30N 32°48' W 009°48'1014.5
2017-Jul-26 17:51N 32°55' W 009°41'514.8
2017-Jul-26 17:30N 32°59' W 009°36'714.7
2017-Jul-26 17:00N 33°04' W 009°30'1315.0
2017-Jul-26 16:10N 33°12' W 009°20'215.1
2017-Jul-26 16:00N 33°14' W 009°18'815.1
2017-Jul-26 15:30N 33°20' W 009°11'2814.7
2017-Jul-26 13:38N 33°40' W 008°49'214.6
2017-Jul-26 13:28N 33°42' W 008°47'1714.4
2017-Jul-26 12:15N 33°54' W 008°33'414.4
2017-Jul-26 12:00N 33°57' W 008°30'16514.2
2017-Jul-26 00:20N 35°58' W 006°12'914.5
2017-Jul-25 23:44N 35°58' W 006°01'414.6
2017-Jul-25 23:27N 35°58' W 005°56'1813.8
2017-Jul-25 22:09N 35°57' W 005°34'  
2017-Jul-19 18:08N 36°27' W 002°11'1 9.4
2017-Jul-19 18:00N 36°27' W 002°09'7910.6
2017-Jul-19 10:30N 37°19' W 000°54'612.7
2017-Jul-19 10:00N 37°23' W 000°49'612.7
2017-Jul-19 09:30N 37°28' W 000°43'612.7
2017-Jul-19 09:00N 37°32' W 000°37'612.8
2017-Jul-19 08:30N 37°36' W 000°31'612.9
2017-Jul-19 08:00N 37°42' W 000°26'612.8
2017-Jul-19 07:30N 37°47' W 000°22'712.8
2017-Jul-19 07:00N 37°53' W 000°18'712.9
2017-Jul-19 06:29N 37°58' W 000°13'613.0
2017-Jul-19 06:00N 38°04' W 000°09'713.0
2017-Jul-19 05:30N 38°09' W 000°06'612.9
2017-Jul-19 05:00N 38°15' W 000°01'713.0
2017-Jul-19 04:30N 38°20' E 000°04'  

Dump ship's entire track history